sensor_id;sensor_type;location;lat;lon;timestamp;temperature;humidity
16064;DHT22;8136;53.172;8.256;2023-04-30T03:37:26;5.40;99.90
16064;DHT22;8136;53.172;8.256;2023-04-30T03:39:55;5.30;99.90
16064;DHT22;8136;53.172;8.256;2023-04-30T03:42:29;5.30;99.90
16064;DHT22;8136;53.172;8.256;2023-04-30T03:45:19;5.30;99.90
16064;DHT22;8136;53.172;8.256;2023-04-30T03:47:53;5.30;99.90
16064;DHT22;8136;53.172;8.256;2023-04-30T03:50:25;5.30;99.90
16064;DHT22;8136;53.172;8.256;2023-04-30T03:53:00;5.30;99.90
16064;DHT22;8136;53.172;8.256;2023-04-30T03:55:35;5.30;99.90
16064;DHT22;8136;53.172;8.256;2023-04-30T03:58:14;5.30;99.90
16064;DHT22;8136;53.172;8.256;2023-04-30T04:00:54;5.20;99.90
16064;DHT22;8136;53.172;8.256;2023-04-30T04:03:33;5.20;99.90
16064;DHT22;8136;53.172;8.256;2023-04-30T04:06:09;5.20;99.90
16064;DHT22;8136;53.172;8.256;2023-04-30T04:08:38;5.30;99.90
16064;DHT22;8136;53.172;8.256;2023-04-30T04:11:07;5.20;99.90
16064;DHT22;8136;53.172;8.256;2023-04-30T04:13:34;5.20;99.90
16064;DHT22;8136;53.172;8.256;2023-04-30T04:16:01;5.30;99.90
16064;DHT22;8136;53.172;8.256;2023-04-30T04:18:28;5.20;99.90
16064;DHT22;8136;53.172;8.256;2023-04-30T04:21:03;5.20;99.90
16064;DHT22;8136;53.172;8.256;2023-04-30T04:23:34;5.20;99.90
16064;DHT22;8136;53.172;8.256;2023-04-30T04:26:12;5.20;99.90
16064;DHT22;8136;53.172;8.256;2023-04-30T04:29:17;5.20;99.90
16064;DHT22;8136;53.172;8.256;2023-04-30T04:31:59;5.30;99.90
16064;DHT22;8136;53.172;8.256;2023-04-30T04:34:32;5.30;99.90
16064;DHT22;8136;53.172;8.256;2023-04-30T04:36:58;5.20;99.90
16064;DHT22;8136;53.172;8.256;2023-04-30T04:39:26;5.20;99.90
16064;DHT22;8136;53.172;8.256;2023-04-30T04:41:54;5.20;99.90
16064;DHT22;8136;53.172;8.256;2023-04-30T04:44:21;5.30;99.90
16064;DHT22;8136;53.172;8.256;2023-04-30T04:46:48;5.30;99.90
16064;DHT22;8136;53.172;8.256;2023-04-30T04:49:26;5.30;99.90
16064;DHT22;8136;53.172;8.256;2023-04-30T04:51:54;5.30;99.90
16064;DHT22;8136;53.172;8.256;2023-04-30T04:54:21;5.30;99.90
16064;DHT22;8136;53.172;8.256;2023-04-30T04:56:48;5.30;99.90
16064;DHT22;8136;53.172;8.256;2023-04-30T04:59:17;5.40;99.90
16064;DHT22;8136;53.172;8.256;2023-04-30T05:01:44;5.40;99.90
16064;DHT22;8136;53.172;8.256;2023-04-30T05:04:11;5.40;99.90
16064;DHT22;8136;53.172;8.256;2023-04-30T05:06:38;5.40;99.90
16064;DHT22;8136;53.172;8.256;2023-04-30T05:09:05;5.50;99.90
16064;DHT22;8136;53.172;8.256;2023-04-30T05:11:33;5.50;99.90
16064;DHT22;8136;53.172;8.256;2023-04-30T05:14:00;5.60;99.90
16064;DHT22;8136;53.172;8.256;2023-04-30T05:16:36;5.60;99.90
16064;DHT22;8136;53.172;8.256;2023-04-30T05:19:06;5.70;99.90
16064;DHT22;8136;53.172;8.256;2023-04-30T05:29:08;6.10;99.90
16064;DHT22;8136;53.172;8.256;2023-04-30T05:32:18;6.20;99.90
16064;DHT22;8136;53.172;8.256;2023-04-30T05:34:58;6.30;99.90
16064;DHT22;8136;53.172;8.256;2023-04-30T05:37:28;6.40;99.90
16064;DHT22;8136;53.172;8.256;2023-04-30T05:40:32;6.50;99.90
16064;DHT22;8136;53.172;8.256;2023-04-30T05:43:23;6.60;99.90
16064;DHT22;8136;53.172;8.256;2023-04-30T05:46:10;6.60;99.90
16064;DHT22;8136;53.172;8.256;2023-04-30T05:48:58;6.60;99.90
16064;DHT22;8136;53.172;8.256;2023-04-30T05:54:25;6.70;99.90
16064;DHT22;8136;53.172;8.256;2023-04-30T05:57:22;6.80;99.90
16064;DHT22;8136;53.172;8.256;2023-04-30T06:00:29;6.90;99.90
16064;DHT22;8136;53.172;8.256;2023-04-30T06:16:57;7.60;99.90
16064;DHT22;8136;53.172;8.256;2023-04-30T06:19:24;7.70;99.90
16064;DHT22;8136;53.172;8.256;2023-04-30T06:21:52;7.80;99.90
16064;DHT22;8136;53.172;8.256;2023-04-30T06:24:20;7.90;99.90
16064;DHT22;8136;53.172;8.256;2023-04-30T06:26:47;8.00;99.90
16064;DHT22;8136;53.172;8.256;2023-04-30T06:29:14;8.10;99.90
16064;DHT22;8136;53.172;8.256;2023-04-30T06:31:46;8.20;99.90
16064;DHT22;8136;53.172;8.256;2023-04-30T06:34:22;8.30;99.90
16064;DHT22;8136;53.172;8.256;2023-04-30T06:36:52;8.40;99.90
16064;DHT22;8136;53.172;8.256;2023-04-30T06:39:19;8.50;99.90
16064;DHT22;8136;53.172;8.256;2023-04-30T06:41:46;8.50;99.90
16064;DHT22;8136;53.172;8.256;2023-04-30T06:44:13;8.60;99.90
16064;DHT22;8136;53.172;8.256;2023-04-30T06:46:40;8.70;99.90
16064;DHT22;8136;53.172;8.256;2023-04-30T06:49:07;8.80;99.90
16064;DHT22;8136;53.172;8.256;2023-04-30T06:51:35;9.00;99.90
16064;DHT22;8136;53.172;8.256;2023-04-30T06:54:02;9.00;99.90
16064;DHT22;8136;53.172;8.256;2023-04-30T06:56:29;9.00;99.90
16064;DHT22;8136;53.172;8.256;2023-04-30T06:58:56;9.10;99.90
16064;DHT22;8136;53.172;8.256;2023-04-30T07:01:22;9.10;99.90
16064;DHT22;8136;53.172;8.256;2023-04-30T07:03:49;9.20;99.90
16064;DHT22;8136;53.172;8.256;2023-04-30T07:06:17;9.20;99.90
16064;DHT22;8136;53.172;8.256;2023-04-30T07:08:45;9.30;99.90
16064;DHT22;8136;53.172;8.256;2023-04-30T07:11:13;9.40;99.90
16064;DHT22;8136;53.172;8.256;2023-04-30T07:13:39;9.40;99.90
16064;DHT22;8136;53.172;8.256;2023-04-30T07:16:06;9.40;99.90
16064;DHT22;8136;53.172;8.256;2023-04-30T07:18:35;9.50;99.90
16064;DHT22;8136;53.172;8.256;2023-04-30T07:21:02;9.60;99.90
16064;DHT22;8136;53.172;8.256;2023-04-30T07:23:29;9.70;99.90
16064;DHT22;8136;53.172;8.256;2023-04-30T07:25:57;9.70;99.90
16064;DHT22;8136;53.172;8.256;2023-04-30T07:28:24;9.70;99.90
16064;DHT22;8136;53.172;8.256;2023-04-30T07:30:51;9.80;99.90
16064;DHT22;8136;53.172;8.256;2023-04-30T07:33:18;9.90;99.90
16064;DHT22;8136;53.172;8.256;2023-04-30T07:35:44;10.00;99.90
16064;DHT22;8136;53.172;8.256;2023-04-30T07:38:11;10.20;99.90
16064;DHT22;8136;53.172;8.256;2023-04-30T07:40:38;10.20;99.90
16064;DHT22;8136;53.172;8.256;2023-04-30T07:43:06;10.30;99.90
16064;DHT22;8136;53.172;8.256;2023-04-30T07:45:33;10.40;99.90
16064;DHT22;8136;53.172;8.256;2023-04-30T07:48:01;10.50;99.90
16064;DHT22;8136;53.172;8.256;2023-04-30T07:50:30;10.60;99.90
16064;DHT22;8136;53.172;8.256;2023-04-30T07:53:00;10.70;99.90
16064;DHT22;8136;53.172;8.256;2023-04-30T07:55:27;10.60;99.90
16064;DHT22;8136;53.172;8.256;2023-04-30T07:57:54;10.60;99.90
16064;DHT22;8136;53.172;8.256;2023-04-30T08:00:23;10.60;99.90
16064;DHT22;8136;53.172;8.256;2023-04-30T08:02:51;10.60;99.90
16064;DHT22;8136;53.172;8.256;2023-04-30T08:05:18;10.70;99.90
16064;DHT22;8136;53.172;8.256;2023-04-30T08:07:45;10.80;99.90
16064;DHT22;8136;53.172;8.256;2023-04-30T08:10:12;10.90;99.90
16064;DHT22;8136;53.172;8.256;2023-04-30T08:12:41;11.00;99.90
16064;DHT22;8136;53.172;8.256;2023-04-30T08:15:16;11.00;99.90
16064;DHT22;8136;53.172;8.256;2023-04-30T08:17:57;11.10;99.90
16064;DHT22;8136;53.172;8.256;2023-04-30T08:20:24;11.20;99.90
16064;DHT22;8136;53.172;8.256;2023-04-30T08:22:51;11.40;99.90
16064;DHT22;8136;53.172;8.256;2023-04-30T08:25:18;11.50;99.90
16064;DHT22;8136;53.172;8.256;2023-04-30T08:27:46;11.60;99.90
16064;DHT22;8136;53.172;8.256;2023-04-30T08:30:13;11.60;99.90
16064;DHT22;8136;53.172;8.256;2023-04-30T08:32:40;11.60;99.90
16064;DHT22;8136;53.172;8.256;2023-04-30T08:35:11;11.60;99.90
16064;DHT22;8136;53.172;8.256;2023-04-30T08:37:38;11.40;99.90
16064;DHT22;8136;53.172;8.256;2023-04-30T08:40:06;11.20;99.90
16064;DHT22;8136;53.172;8.256;2023-04-30T08:42:43;11.00;99.90
16064;DHT22;8136;53.172;8.256;2023-04-30T08:45:15;11.00;99.90
16064;DHT22;8136;53.172;8.256;2023-04-30T08:47:48;11.00;99.90
16064;DHT22;8136;53.172;8.256;2023-04-30T08:50:18;11.30;99.90
16064;DHT22;8136;53.172;8.256;2023-04-30T08:52:45;11.40;99.90
16064;DHT22;8136;53.172;8.256;2023-04-30T08:55:15;11.80;99.90
16064;DHT22;8136;53.172;8.256;2023-04-30T08:57:42;12.00;99.90
16064;DHT22;8136;53.172;8.256;2023-04-30T09:00:10;12.20;99.90
16064;DHT22;8136;53.172;8.256;2023-04-30T09:02:40;12.20;99.90
16064;DHT22;8136;53.172;8.256;2023-04-30T09:05:10;12.10;99.90
16064;DHT22;8136;53.172;8.256;2023-04-30T09:07:40;11.80;99.90
16064;DHT22;8136;53.172;8.256;2023-04-30T09:10:14;11.80;99.90
16064;DHT22;8136;53.172;8.256;2023-04-30T09:12:43;11.70;99.90
16064;DHT22;8136;53.172;8.256;2023-04-30T09:15:11;11.80;99.90
16064;DHT22;8136;53.172;8.256;2023-04-30T09:17:39;11.80;99.90
16064;DHT22;8136;53.172;8.256;2023-04-30T09:20:11;11.80;99.90
16064;DHT22;8136;53.172;8.256;2023-04-30T09:22:41;11.80;99.90
16064;DHT22;8136;53.172;8.256;2023-04-30T09:25:09;12.00;99.90
16064;DHT22;8136;53.172;8.256;2023-04-30T09:30:29;12.30;99.90
16064;DHT22;8136;53.172;8.256;2023-04-30T09:32:57;12.40;99.90
16064;DHT22;8136;53.172;8.256;2023-04-30T09:35:47;12.60;99.90
16064;DHT22;8136;53.172;8.256;2023-04-30T09:38:29;12.80;99.90
16064;DHT22;8136;53.172;8.256;2023-04-30T09:40:58;12.80;99.90
16064;DHT22;8136;53.172;8.256;2023-04-30T09:43:25;12.80;99.90
16064;DHT22;8136;53.172;8.256;2023-04-30T09:45:52;12.90;99.90
16064;DHT22;8136;53.172;8.256;2023-04-30T09:48:21;12.80;99.90
16064;DHT22;8136;53.172;8.256;2023-04-30T09:50:48;12.80;99.90
16064;DHT22;8136;53.172;8.256;2023-04-30T09:56:37;12.90;99.90
16064;DHT22;8136;53.172;8.256;2023-04-30T09:59:07;12.80;99.90
16064;DHT22;8136;53.172;8.256;2023-04-30T10:05:10;12.80;99.90
16064;DHT22;8136;53.172;8.256;2023-04-30T10:10:58;12.90;99.90
16064;DHT22;8136;53.172;8.256;2023-04-30T10:13:37;12.90;99.90
16064;DHT22;8136;53.172;8.256;2023-04-30T10:16:14;13.10;99.90
16064;DHT22;8136;53.172;8.256;2023-04-30T10:18:45;13.40;99.90
16064;DHT22;8136;53.172;8.256;2023-04-30T10:21:18;13.60;99.90
16064;DHT22;8136;53.172;8.256;2023-04-30T10:23:54;13.60;99.90
16064;DHT22;8136;53.172;8.256;2023-04-30T10:26:28;13.70;99.90
16064;DHT22;8136;53.172;8.256;2023-04-30T10:29:10;13.80;99.90
16064;DHT22;8136;53.172;8.256;2023-04-30T10:31:59;13.90;99.90
16064;DHT22;8136;53.172;8.256;2023-04-30T10:34:44;13.70;99.90
16064;DHT22;8136;53.172;8.256;2023-04-30T10:39:58;13.60;99.90
16064;DHT22;8136;53.172;8.256;2023-04-30T10:42:26;13.80;99.90
16064;DHT22;8136;53.172;8.256;2023-04-30T10:44:54;13.90;99.90
16064;DHT22;8136;53.172;8.256;2023-04-30T10:47:27;14.10;99.90
16064;DHT22;8136;53.172;8.256;2023-04-30T10:50:01;14.20;99.90
16064;DHT22;8136;53.172;8.256;2023-04-30T10:52:29;14.20;99.90
16064;DHT22;8136;53.172;8.256;2023-04-30T10:54:56;14.20;99.90
16064;DHT22;8136;53.172;8.256;2023-04-30T10:57:23;14.00;99.90
16064;DHT22;8136;53.172;8.256;2023-04-30T11:00:17;13.90;99.90
16064;DHT22;8136;53.172;8.256;2023-04-30T11:02:45;13.90;99.90
16064;DHT22;8136;53.172;8.256;2023-04-30T11:05:14;14.20;99.90
16064;DHT22;8136;53.172;8.256;2023-04-30T11:16:02;14.70;99.90
16064;DHT22;8136;53.172;8.256;2023-04-30T11:22:38;14.10;99.90
16064;DHT22;8136;53.172;8.256;2023-04-30T11:25:12;14.50;99.90
16064;DHT22;8136;53.172;8.256;2023-04-30T11:28:06;14.90;99.90
16064;DHT22;8136;53.172;8.256;2023-04-30T11:34:04;15.50;99.90
16064;DHT22;8136;53.172;8.256;2023-04-30T11:37:18;15.60;99.90
16064;DHT22;8136;53.172;8.256;2023-04-30T11:40:00;15.70;99.90
16064;DHT22;8136;53.172;8.256;2023-04-30T11:42:44;15.80;99.90
16064;DHT22;8136;53.172;8.256;2023-04-30T11:58:58;16.50;99.90
16064;DHT22;8136;53.172;8.256;2023-04-30T12:01:29;16.60;99.90
16064;DHT22;8136;53.172;8.256;2023-04-30T12:04:09;16.60;99.90
16064;DHT22;8136;53.172;8.256;2023-04-30T12:07:08;16.60;99.90
16064;DHT22;8136;53.172;8.256;2023-04-30T12:09:50;16.70;99.90
16064;DHT22;8136;53.172;8.256;2023-04-30T12:12:25;16.90;99.90
16064;DHT22;8136;53.172;8.256;2023-04-30T12:14:54;17.00;99.90
16064;DHT22;8136;53.172;8.256;2023-04-30T12:17:30;17.00;99.90
16064;DHT22;8136;53.172;8.256;2023-04-30T12:19:58;17.10;99.90
16064;DHT22;8136;53.172;8.256;2023-04-30T12:22:25;17.20;99.90
16064;DHT22;8136;53.172;8.256;2023-04-30T12:24:53;17.30;99.90
16064;DHT22;8136;53.172;8.256;2023-04-30T12:27:20;17.50;99.90
16064;DHT22;8136;53.172;8.256;2023-04-30T12:29:47;17.60;99.90
16064;DHT22;8136;53.172;8.256;2023-04-30T12:32:18;17.70;99.90
16064;DHT22;8136;53.172;8.256;2023-04-30T12:34:44;17.70;99.90
16064;DHT22;8136;53.172;8.256;2023-04-30T12:37:14;17.50;99.90
16064;DHT22;8136;53.172;8.256;2023-04-30T12:39:42;17.40;99.90
16064;DHT22;8136;53.172;8.256;2023-04-30T12:42:09;17.50;99.90
16064;DHT22;8136;53.172;8.256;2023-04-30T12:44:42;17.50;99.90
16064;DHT22;8136;53.172;8.256;2023-04-30T12:47:09;17.60;99.90
16064;DHT22;8136;53.172;8.256;2023-04-30T12:49:37;17.70;99.90
16064;DHT22;8136;53.172;8.256;2023-04-30T12:52:05;17.80;99.90
16064;DHT22;8136;53.172;8.256;2023-04-30T12:54:34;18.00;99.90
16064;DHT22;8136;53.172;8.256;2023-04-30T12:57:03;18.10;99.90
16064;DHT22;8136;53.172;8.256;2023-04-30T12:59:33;18.10;99.90
16064;DHT22;8136;53.172;8.256;2023-04-30T13:02:11;18.10;99.90
16064;DHT22;8136;53.172;8.256;2023-04-30T13:04:40;18.20;99.90
16064;DHT22;8136;53.172;8.256;2023-04-30T13:07:07;18.30;99.90
16064;DHT22;8136;53.172;8.256;2023-04-30T13:09:35;18.40;99.90
16064;DHT22;8136;53.172;8.256;2023-04-30T13:12:03;18.20;99.90
16064;DHT22;8136;53.172;8.256;2023-04-30T13:14:31;18.20;99.90
16064;DHT22;8136;53.172;8.256;2023-04-30T13:16:58;18.30;99.90
16064;DHT22;8136;53.172;8.256;2023-04-30T13:19:27;18.40;99.90
16064;DHT22;8136;53.172;8.256;2023-04-30T13:21:56;18.70;99.90
16064;DHT22;8136;53.172;8.256;2023-04-30T13:24:23;19.00;99.90
16064;DHT22;8136;53.172;8.256;2023-04-30T13:26:50;19.20;99.90
16064;DHT22;8136;53.172;8.256;2023-04-30T13:29:17;19.30;99.90
16064;DHT22;8136;53.172;8.256;2023-04-30T13:31:45;19.40;99.90
16064;DHT22;8136;53.172;8.256;2023-04-30T13:34:13;19.40;99.90
16064;DHT22;8136;53.172;8.256;2023-04-30T13:36:40;19.50;99.90
16064;DHT22;8136;53.172;8.256;2023-04-30T13:39:08;19.60;99.90
16064;DHT22;8136;53.172;8.256;2023-04-30T13:41:35;19.70;99.90
16064;DHT22;8136;53.172;8.256;2023-04-30T13:44:02;19.70;99.90
16064;DHT22;8136;53.172;8.256;2023-04-30T13:46:29;19.80;99.90
16064;DHT22;8136;53.172;8.256;2023-04-30T13:48:55;19.90;99.90
16064;DHT22;8136;53.172;8.256;2023-04-30T13:51:22;20.00;99.90
16064;DHT22;8136;53.172;8.256;2023-04-30T13:53:49;20.20;99.90
16064;DHT22;8136;53.172;8.256;2023-04-30T13:56:17;20.30;99.90
16064;DHT22;8136;53.172;8.256;2023-04-30T13:58:45;20.50;99.90
16064;DHT22;8136;53.172;8.256;2023-04-30T14:01:12;20.50;98.10
16064;DHT22;8136;53.172;8.256;2023-04-30T14:03:39;20.50;97.80
16064;DHT22;8136;53.172;8.256;2023-04-30T14:06:05;20.80;97.50
16064;DHT22;8136;53.172;8.256;2023-04-30T14:08:33;21.30;97.60
16064;DHT22;8136;53.172;8.256;2023-04-30T14:11:00;22.00;97.80
16064;DHT22;8136;53.172;8.256;2023-04-30T14:13:28;22.70;97.70
16064;DHT22;8136;53.172;8.256;2023-04-30T14:15:55;23.30;94.80
16064;DHT22;8136;53.172;8.256;2023-04-30T14:18:22;24.00;94.60
16064;DHT22;8136;53.172;8.256;2023-04-30T14:20:51;24.70;92.80
16064;DHT22;8136;53.172;8.256;2023-04-30T14:23:18;25.40;92.10
16064;DHT22;8136;53.172;8.256;2023-04-30T14:25:45;25.90;90.90
16064;DHT22;8136;53.172;8.256;2023-04-30T14:28:12;26.40;91.50
16064;DHT22;8136;53.172;8.256;2023-04-30T14:30:49;27.10;90.10
16064;DHT22;8136;53.172;8.256;2023-04-30T14:33:22;27.50;89.20
16064;DHT22;8136;53.172;8.256;2023-04-30T14:35:49;28.00;83.60
16064;DHT22;8136;53.172;8.256;2023-04-30T14:38:16;28.40;85.10
16064;DHT22;8136;53.172;8.256;2023-04-30T14:40:46;28.90;81.50
16064;DHT22;8136;53.172;8.256;2023-04-30T14:43:13;29.30;80.10
16064;DHT22;8136;53.172;8.256;2023-04-30T14:45:43;29.40;79.70
16064;DHT22;8136;53.172;8.256;2023-04-30T14:48:12;29.80;77.00
16064;DHT22;8136;53.172;8.256;2023-04-30T14:50:39;30.30;75.70
16064;DHT22;8136;53.172;8.256;2023-04-30T14:53:06;30.50;76.10
16064;DHT22;8136;53.172;8.256;2023-04-30T14:55:35;31.00;73.60
16064;DHT22;8136;53.172;8.256;2023-04-30T14:58:04;30.90;73.00
16064;DHT22;8136;53.172;8.256;2023-04-30T15:00:33;31.00;73.80
16064;DHT22;8136;53.172;8.256;2023-04-30T15:03:08;31.60;70.90
16064;DHT22;8136;53.172;8.256;2023-04-30T15:05:44;31.80;67.20
16064;DHT22;8136;53.172;8.256;2023-04-30T15:08:11;32.30;65.80
16064;DHT22;8136;53.172;8.256;2023-04-30T15:10:43;31.90;67.60
16064;DHT22;8136;53.172;8.256;2023-04-30T15:13:10;31.70;66.10
16064;DHT22;8136;53.172;8.256;2023-04-30T15:15:38;32.20;66.90
16064;DHT22;8136;53.172;8.256;2023-04-30T15:18:18;32.80;66.10
16064;DHT22;8136;53.172;8.256;2023-04-30T15:20:55;31.90;66.70
16064;DHT22;8136;53.172;8.256;2023-04-30T15:23:35;31.90;67.50
16064;DHT22;8136;53.172;8.256;2023-04-30T15:26:02;32.40;65.90
16064;DHT22;8136;53.172;8.256;2023-04-30T15:28:30;32.70;64.50
16064;DHT22;8136;53.172;8.256;2023-04-30T15:31:00;32.50;64.90
16064;DHT22;8136;53.172;8.256;2023-04-30T15:33:28;32.60;65.20
16064;DHT22;8136;53.172;8.256;2023-04-30T15:35:59;32.30;63.00
16064;DHT22;8136;53.172;8.256;2023-04-30T15:38:26;32.50;63.20
16064;DHT22;8136;53.172;8.256;2023-04-30T15:40:57;32.30;62.80
16064;DHT22;8136;53.172;8.256;2023-04-30T15:43:24;32.20;62.40
16064;DHT22;8136;53.172;8.256;2023-04-30T15:45:51;32.40;63.80
16064;DHT22;8136;53.172;8.256;2023-04-30T15:48:17;32.30;62.70
16064;DHT22;8136;53.172;8.256;2023-04-30T15:50:44;32.20;61.10
16064;DHT22;8136;53.172;8.256;2023-04-30T15:53:12;32.30;61.50
16064;DHT22;8136;53.172;8.256;2023-04-30T15:55:39;31.50;63.20
16064;DHT22;8136;53.172;8.256;2023-04-30T15:58:06;31.70;63.00
16064;DHT22;8136;53.172;8.256;2023-04-30T16:00:36;32.20;61.40
16064;DHT22;8136;53.172;8.256;2023-04-30T16:03:03;31.40;61.60
16064;DHT22;8136;53.172;8.256;2023-04-30T16:05:29;31.20;61.10
16064;DHT22;8136;53.172;8.256;2023-04-30T16:07:58;30.70;62.80
16064;DHT22;8136;53.172;8.256;2023-04-30T16:10:27;31.50;61.60
16064;DHT22;8136;53.172;8.256;2023-04-30T16:12:54;31.10;60.60
16064;DHT22;8136;53.172;8.256;2023-04-30T16:15:21;29.70;62.00
16064;DHT22;8136;53.172;8.256;2023-04-30T16:17:48;28.80;63.30
16064;DHT22;8136;53.172;8.256;2023-04-30T16:20:15;27.70;65.60
16064;DHT22;8136;53.172;8.256;2023-04-30T16:22:42;27.20;67.00
16064;DHT22;8136;53.172;8.256;2023-04-30T16:25:11;26.50;68.20
16064;DHT22;8136;53.172;8.256;2023-04-30T16:27:39;25.50;69.30
16064;DHT22;8136;53.172;8.256;2023-04-30T16:30:07;24.60;71.80
16064;DHT22;8136;53.172;8.256;2023-04-30T16:32:34;24.30;72.60
16064;DHT22;8136;53.172;8.256;2023-04-30T16:35:01;23.60;74.50
16064;DHT22;8136;53.172;8.256;2023-04-30T16:39:58;23.00;75.80
16064;DHT22;8136;53.172;8.256;2023-04-30T16:42:25;23.20;76.10
16064;DHT22;8136;53.172;8.256;2023-04-30T16:44:55;23.50;75.60
16064;DHT22;8136;53.172;8.256;2023-04-30T16:47:31;23.80;75.30
16064;DHT22;8136;53.172;8.256;2023-04-30T16:49:58;23.40;75.40
16064;DHT22;8136;53.172;8.256;2023-04-30T16:52:25;23.00;76.70
16064;DHT22;8136;53.172;8.256;2023-04-30T16:54:52;22.80;76.10
16064;DHT22;8136;53.172;8.256;2023-04-30T16:57:19;22.50;76.00
16064;DHT22;8136;53.172;8.256;2023-04-30T16:59:46;22.50;76.30
16064;DHT22;8136;53.172;8.256;2023-04-30T17:02:14;22.30;77.50
16064;DHT22;8136;53.172;8.256;2023-04-30T17:04:41;21.80;78.20
16064;DHT22;8136;53.172;8.256;2023-04-30T17:07:08;21.60;80.10
16064;DHT22;8136;53.172;8.256;2023-04-30T17:09:37;21.40;79.40
16064;DHT22;8136;53.172;8.256;2023-04-30T17:12:06;21.00;80.60
16064;DHT22;8136;53.172;8.256;2023-04-30T17:14:33;20.70;80.80
16064;DHT22;8136;53.172;8.256;2023-04-30T17:16:59;20.30;82.80
16064;DHT22;8136;53.172;8.256;2023-04-30T17:19:32;20.10;84.00
16064;DHT22;8136;53.172;8.256;2023-04-30T17:21:59;20.00;85.60
16064;DHT22;8136;53.172;8.256;2023-04-30T17:24:26;19.80;85.80
16064;DHT22;8136;53.172;8.256;2023-04-30T17:26:55;19.70;84.70
16064;DHT22;8136;53.172;8.256;2023-04-30T17:29:23;19.50;84.50
16064;DHT22;8136;53.172;8.256;2023-04-30T17:31:50;19.30;87.00
16064;DHT22;8136;53.172;8.256;2023-04-30T17:34:30;19.10;88.20
16064;DHT22;8136;53.172;8.256;2023-04-30T17:37:15;19.00;88.30
16064;DHT22;8136;53.172;8.256;2023-04-30T17:39:44;18.80;89.60
16064;DHT22;8136;53.172;8.256;2023-04-30T17:42:11;19.00;89.70
16064;DHT22;8136;53.172;8.256;2023-04-30T17:44:38;18.80;90.30
16064;DHT22;8136;53.172;8.256;2023-04-30T17:47:08;18.70;90.60
16064;DHT22;8136;53.172;8.256;2023-04-30T17:49:35;18.60;90.30
16064;DHT22;8136;53.172;8.256;2023-04-30T17:52:04;18.30;90.80
16064;DHT22;8136;53.172;8.256;2023-04-30T17:54:32;18.30;91.10
16064;DHT22;8136;53.172;8.256;2023-04-30T17:57:04;18.20;91.30
16064;DHT22;8136;53.172;8.256;2023-04-30T17:59:31;18.10;91.50
16064;DHT22;8136;53.172;8.256;2023-04-30T18:01:59;18.00;91.80
16064;DHT22;8136;53.172;8.256;2023-04-30T18:04:27;17.90;92.20
16064;DHT22;8136;53.172;8.256;2023-04-30T18:06:54;17.80;92.60
16064;DHT22;8136;53.172;8.256;2023-04-30T18:09:24;17.60;93.00
16064;DHT22;8136;53.172;8.256;2023-04-30T18:11:53;17.60;93.00
16064;DHT22;8136;53.172;8.256;2023-04-30T18:14:20;17.60;93.10
16064;DHT22;8136;53.172;8.256;2023-04-30T18:16:47;17.40;93.30
16064;DHT22;8136;53.172;8.256;2023-04-30T18:19:14;17.40;93.60
16064;DHT22;8136;53.172;8.256;2023-04-30T18:21:42;17.30;94.30
16064;DHT22;8136;53.172;8.256;2023-04-30T18:24:10;17.30;94.30
16064;DHT22;8136;53.172;8.256;2023-04-30T18:26:37;17.10;94.70
16064;DHT22;8136;53.172;8.256;2023-04-30T18:29:05;17.10;94.80
16064;DHT22;8136;53.172;8.256;2023-04-30T18:31:33;16.90;95.30
16064;DHT22;8136;53.172;8.256;2023-04-30T18:34:01;16.80;95.50
16064;DHT22;8136;53.172;8.256;2023-04-30T18:36:40;16.60;95.60
16064;DHT22;8136;53.172;8.256;2023-04-30T18:39:13;16.50;95.90
16064;DHT22;8136;53.172;8.256;2023-04-30T18:41:56;16.30;96.00
16064;DHT22;8136;53.172;8.256;2023-04-30T18:44:45;16.20;96.30
16064;DHT22;8136;53.172;8.256;2023-04-30T18:47:15;16.20;96.40
16064;DHT22;8136;53.172;8.256;2023-04-30T18:49:50;16.10;96.70
16064;DHT22;8136;53.172;8.256;2023-04-30T18:52:25;15.90;96.90
16064;DHT22;8136;53.172;8.256;2023-04-30T18:55:19;15.70;97.20
16064;DHT22;8136;53.172;8.256;2023-04-30T18:57:53;15.60;96.10
16064;DHT22;8136;53.172;8.256;2023-04-30T19:00:54;15.40;95.90
16064;DHT22;8136;53.172;8.256;2023-04-30T19:03:21;15.20;95.90
16064;DHT22;8136;53.172;8.256;2023-04-30T19:06:03;15.00;96.30
16064;DHT22;8136;53.172;8.256;2023-04-30T19:08:33;14.90;96.30
16064;DHT22;8136;53.172;8.256;2023-04-30T19:11:20;14.90;96.30
16064;DHT22;8136;53.172;8.256;2023-04-30T19:14:00;14.80;96.50
16064;DHT22;8136;53.172;8.256;2023-04-30T19:16:28;14.70;96.50
16064;DHT22;8136;53.172;8.256;2023-04-30T19:19:18;14.70;96.70
16064;DHT22;8136;53.172;8.256;2023-04-30T19:22:06;14.50;97.10
16064;DHT22;8136;53.172;8.256;2023-04-30T19:24:47;14.40;97.10
16064;DHT22;8136;53.172;8.256;2023-04-30T19:27:14;14.30;97.70
16064;DHT22;8136;53.172;8.256;2023-04-30T19:29:43;14.20;97.60
16064;DHT22;8136;53.172;8.256;2023-04-30T19:32:16;14.10;98.00
16064;DHT22;8136;53.172;8.256;2023-04-30T19:34:44;14.10;98.20
16064;DHT22;8136;53.172;8.256;2023-04-30T19:37:11;14.00;98.70
16064;DHT22;8136;53.172;8.256;2023-04-30T19:39:38;14.00;98.50
16064;DHT22;8136;53.172;8.256;2023-04-30T19:42:06;13.90;99.00
16064;DHT22;8136;53.172;8.256;2023-04-30T19:44:33;13.80;99.00
16064;DHT22;8136;53.172;8.256;2023-04-30T19:47:00;13.80;99.50
16064;DHT22;8136;53.172;8.256;2023-04-30T19:49:29;13.80;99.60
16064;DHT22;8136;53.172;8.256;2023-04-30T19:51:57;13.70;99.90
16064;DHT22;8136;53.172;8.256;2023-04-30T19:54:24;13.70;99.90
16064;DHT22;8136;53.172;8.256;2023-04-30T19:56:51;13.60;99.90
16064;DHT22;8136;53.172;8.256;2023-04-30T19:59:19;13.40;99.90
16064;DHT22;8136;53.172;8.256;2023-04-30T20:01:46;13.40;99.90
16064;DHT22;8136;53.172;8.256;2023-04-30T20:04:13;13.30;99.90
16064;DHT22;8136;53.172;8.256;2023-04-30T20:06:42;13.20;99.90
16064;DHT22;8136;53.172;8.256;2023-04-30T20:09:09;13.20;99.90
16064;DHT22;8136;53.172;8.256;2023-04-30T20:11:36;13.20;99.90
16064;DHT22;8136;53.172;8.256;2023-04-30T20:14:03;13.20;99.90
16064;DHT22;8136;53.172;8.256;2023-04-30T20:16:30;13.20;99.90
16064;DHT22;8136;53.172;8.256;2023-04-30T20:18:57;13.20;99.90
16064;DHT22;8136;53.172;8.256;2023-04-30T20:21:26;13.00;99.90
16064;DHT22;8136;53.172;8.256;2023-04-30T20:23:54;12.90;99.90
16064;DHT22;8136;53.172;8.256;2023-04-30T20:26:21;12.80;99.90
16064;DHT22;8136;53.172;8.256;2023-04-30T20:28:50;12.80;99.90
16064;DHT22;8136;53.172;8.256;2023-04-30T20:31:17;12.70;99.90
16064;DHT22;8136;53.172;8.256;2023-04-30T20:33:44;12.70;99.90
16064;DHT22;8136;53.172;8.256;2023-04-30T20:36:11;12.60;99.90
16064;DHT22;8136;53.172;8.256;2023-04-30T20:38:38;12.50;99.90
16064;DHT22;8136;53.172;8.256;2023-04-30T20:41:07;12.50;99.90
16064;DHT22;8136;53.172;8.256;2023-04-30T20:43:34;12.50;99.90
16064;DHT22;8136;53.172;8.256;2023-04-30T20:46:01;12.40;99.90
16064;DHT22;8136;53.172;8.256;2023-04-30T20:48:28;12.40;99.90
16064;DHT22;8136;53.172;8.256;2023-04-30T20:50:55;12.30;99.90
16064;DHT22;8136;53.172;8.256;2023-04-30T20:53:22;12.30;99.90
16064;DHT22;8136;53.172;8.256;2023-04-30T20:55:49;12.20;99.90
16064;DHT22;8136;53.172;8.256;2023-04-30T20:58:17;12.30;99.90
16064;DHT22;8136;53.172;8.256;2023-04-30T21:00:44;12.30;99.90